Delta Virtual Airport Information Service

Indianapolis International Airport

ICAO: KIND Country: United States
Latitude: 39.7173 Longitude: -86.2946
Latest Arrival : FDX6321251 (EDDK-KIND) Latest Departure : DAC7112 (KIND-KBNA)


WX CaptureLIVE
Data provided by noaa.gov | Fetched at 00:24:33

METAR : KIND 060454Z 00000KT 10SM FEW140 SCT250 27/21 A2997 RMK AO2 SLP141 T02720211 403440222 $

TAF : KIND 060217Z 0602/0706 08004KT P6SM FEW060 FM060300 09003KT P6SM FEW250 FM061500 16005KT P6SM SCT050


Runway Data for KIND
Data provided by openaviationdata.com

Runway ID Mag Var Hdg Length Elevation Surface ILS Freq ILS Id ILS Slope
05L -2 46° 11197 ft 797 ft Concrete 111.75 IIND 3
05R -2 46° 9998 ft 797 ft Concrete 111.15 IOQV 3
14 -2 136° 7602 ft 797 ft Asphalt 110.5 IBJP 3
23L -2 226° 9998 ft 797 ft Concrete 111.15 IFVJ 3
23R -2 226° 11197 ft 797 ft Concrete 111.75 IUZK 3
32 -2 316° 7602 ft 797 ft Asphalt 110.5 ICOA 3

Indianapolis International Airport, United States
Use only for reference purposes



Not for navigational purposes.